Relevés horaires Chievres (Belgique)


Relevés horaires à Chievres - Dimanche 17 Avr. 2022
Heure UTC1 Température [°C] Vent [km/h] Hum. [%] Pres.4 [hPa] Visi. [Km] Nébu. [octa] Préc.5 [mm] Cond.
2m. Res. Ros. Dir.2 Vit. Moy. Raf.3
23:00 8.5 8.5 1.7 SSE 3.7 -- 5.6 62 1019.6(-0.5/3h) 20 -- -- --
22:00 9.7 9.7 1.4 NNO 1.9 -- 7.4 56 1019.6(-0.3/3h) 20 -- -- --
21:00 11.1 10.8 2.4 ESE 5.6 -- 7.4 55 1019.7(-0.2/3h) 20 -- -- --
20:00 13.5 13.5 1.6 E 3.7 -- 5.6 44 1020(-0.3/3h) 20 -- -- --
19:00 15.6 15.6 1.2 E 3.7 -- 5.6 38 1019.8(-1.0/3h) 20 -- -- --
18:00 17.3 17.3 2.6 E 3.7 -- 13.0 37 1019.7(-1.6/3h) 20 -- -- --
17:00 18.9 18.9 2.4 E 3.7 -- 7.4 33 1020.2(-2.0/3h) 20 -- -- --
16:00 19.8 19.8 1.3 E 5.6 -- 9.3 29 1020.7(-2.4/3h) 20 -- -- --
15:00 19.5 19.5 2.3 E 5.6 -- 13.0 32 1021.3(-2.8/3h) 20 -- -- --
14:00 19.1 19.1 2.4 E 7.4 -- 11.1 33 1022.2(-2.8/3h) 20 -- -- --
13:00 17.9 17.9 1.7 E 7.4 -- 13.0 34 1023.2(-2.6/3h) 20 -- -- --
12:00 16.7 16.7 1.8 E 5.6 -- 14.8 37 1024.2(-2.2/3h) 20 -- -- --
11:00 15.2 15.2 1.5 ENE 5.6 -- 11.1 39 1025.2(-1.7/3h) 20 -- -- --
10:00 14.2 14.2 2.1 NNO 1.9 -- 7.4 44 1026(-1.1/3h) 20 -- -- --
09:00 12.3 12.3 -0.7 ESE 3.7 -- 7.4 41 1026.7(-0.6/3h) 20 -- -- --
08:00 10.8 10.8 -- ESE 3.7 -- 5.6 -- 1027(-0.3/3h) 20 -- -- --
07:00 8.0 8.0 1.7 E 3.7 -- 5.6 64 1027.4(-0.4/3h) 20 -- -- --
06:00 4.8 4.8 0.9 NE 3.7 -- 7.4 76 1027.7(-0.5/3h) 20 -- -- --
05:00 1.6 1.6 -0.9 NNO 1.9 -- 5.6 83 1027.7(-0.8/3h) 20 -- -- --
04:00 3.7 3.7 -0.3 E 3.7 -- 5.6 75 1027.9(-0.7/3h) 20 -- -- --
03:00 4.3 3.1 0.5 ESE 5.6 -- 7.4 76 1028.2(-0.7/3h) 20 -- -- --
02:00 4.4 4.4 1.0 E 3.7 -- 5.6 79 1028.5(-0.6/3h) 20 -- -- --
01:00 6.6 6.6 1.5 E 3.7 -- 3.7 70 1028.5(-0.4/3h) 20 -- -- --
00:00 7.2 7.2 1.6 NNO 1.9 -- 9.3 68 1028.9(-0.3/3h) 20 -- -- --

1 Coordinated Universal Time. Actuellement il est 01:00 locale et 23:00 UTC.

2 Le vent souffle depuis la direction indiquée vers la direction oposée.

3 Les rafales max. sont disponible 40 min après l'heure du relevé.

4 Pour les stations d'altitude (plus de 600m) le géopotentiel du niveau le plus proche de la pression obligatoire est indiqué.

5 Les stations disposant d'un diffuseur peuvent indiquer "trace". Cela signifie que des précipitations ont touchés le sol mais que la quantité est inférieure à 0.1 mm.

Récapitulatif de la journée
Température [°C] Vent [km/h] Ensoleillement4 [h] Precipitations totale5 [mm] Pression [Hpa]
Min1 Max.2 Moy.3 Max. Min Max.
1.5 20.5 0 14.8 0 h 0 min 0 1019.6 1028.9

1 Température minimale relevée entre 18:00 UTC la veille et 18:00 UTC le jour donné.

2 Température maximale relevée entre 06:00 UTC le jour donné et 06:00 UTC le lendemain.

3 Vent moyen de la journée basé sur les relevés horaires.

4 Ensoleillement en heures relevé entre 06:00 UTC la veille et 06:00 UTC le jour donné.

5 Précipitations totales tombées entre 06:00 UTC la jour donné et 06:00 UTC le lendemain.

Graphiques horaires